Pagrindinis puslapis
METAR-TAF:

METAR-TAF

Oro uostai :

Niamėjus, Nigeris

platuma: 13-29N, ilguma: 002-10E, Aukštis: 223 m

Dabartinis oras

Ataskaita buvo paskelbta 50 minutes, ne 03:00 UTC
Ramus vėjas
Temperatūra 26°C
Drėgmė 15%
Slėgis 1009 hPa
Matomumas 10 km arba daugiau
nėra debesų žemiau 1500 m ir nėra kamuolinių lietaus debesų

METAR: DRRN 280300Z 00000KT CAVOK 26/M03 Q1009 NOSIG

Laikas: 04:50 (03:50 UTC)

Prognozė

Ataskaita buvo paskelbta 4 valandos ir 50 minutes, ne 23:00 UTC
Prognozė galioja nuo 28 metu 00 UTC su 29 metu 06 UTC
Vėjas 6 kt iš Šiaurės Rytų
Matomumas: 8000 m
Laikinai
nuo 28 metu 06 UTC su 28 metu 09 UTC
Matomumas: 4500 m
dulkės
Tapsmas
tarp 28 ir 11 UTC
Vėjas 10 kt iš Šiaurės

TAF: DRRN 272300Z 2800/2906 04006KT 8000 NSC TEMPO 2806/2809 4500 DU BECMG 28116/2818 35010KT

Orai ataskaitas ir orų prognozės (METAR, TAF).

turimą stotys yra geltonos ir raudonos taškus žemėlapyje.

Perkelti pele per norėdami pamatyti stoties vardą.

Tada spustelėkite, norėdami matyti oro stebėjimo ir prognozės.

Norėdami pakeisti žemėlapį: spustelėkite ant žalios mygtukų su juodo kryžiaus žemyn,; žalią mygtuką su brūkšneliu, jei norite nutolinti; arba žalių rodyklių gretimoms žemėlapius.


METAR-TAF: